createdAt,value
2015-12-27T00:00:57.695Z,10.8
2015-12-27T00:01:56.948Z,10.7
2015-12-27T00:02:58.653Z,10.7
2015-12-27T00:03:58.109Z,10.7
2015-12-27T00:05:57.285Z,10.7
2015-12-27T00:06:56.991Z,10.7
2015-12-27T00:07:56.463Z,10.7
2015-12-27T00:08:56.185Z,10.7
2015-12-27T00:09:55.890Z,10.7
2015-12-27T00:10:55.362Z,10.6
2015-12-27T00:11:55.146Z,10.6
2015-12-27T00:12:56.851Z,10.6
2015-12-27T00:13:56.557Z,10.5
2015-12-27T00:14:56.279Z,10.5
2015-12-27T00:15:56.001Z,10.5
2015-12-27T00:16:55.707Z,10.5
2015-12-27T00:17:55.677Z,10.5
2015-12-27T00:18:55.665Z,10.5
2015-12-27T00:19:55.637Z,10.5
2015-12-27T00:20:55.608Z,10.5
2015-12-27T00:21:55.642Z,10.5
2015-12-27T00:22:57.347Z,10.5
2015-12-27T00:23:57.319Z,10.5
2015-12-27T00:24:57.556Z,10.5
2015-12-27T00:25:57.793Z,10.5
2015-12-27T00:26:58.015Z,10.5
2015-12-27T00:27:58.252Z,10.5
2015-12-27T00:28:58.473Z,10.5
2015-12-27T00:29:58.710Z,10.5
2015-12-27T00:30:58.932Z,10.5
2015-12-27T00:31:59.215Z,10.5
2015-12-27T00:33:00.937Z,10.5
2015-12-27T00:34:01.425Z,10.5
2015-12-27T00:35:01.662Z,10.5
2015-12-27T00:36:01.883Z,10.4
2015-12-27T00:37:02.104Z,10.4
2015-12-27T00:38:02.342Z,10.5
2015-12-27T00:39:02.828Z,10.4
2015-12-27T00:40:03.066Z,10.5
2015-12-27T00:41:03.553Z,10.5
2015-12-27T00:42:04.103Z,10.4
2015-12-27T00:43:05.809Z,10.4
2015-12-27T00:44:06.031Z,10.4
2015-12-27T00:45:06.533Z,10.3
2015-12-27T00:46:07.270Z,10.4
2015-12-27T00:47:08.022Z,10.4
2015-12-27T00:48:08.759Z,10.4
2015-12-27T00:49:09.497Z,10.3
2015-12-27T00:50:10.250Z,10.3
2015-12-27T00:51:10.986Z,10.4
2015-12-27T00:52:11.803Z,10.4
2015-12-27T00:53:13.492Z,10.4
2015-12-27T00:54:14.245Z,10.5
2015-12-27T00:55:14.982Z,10.5
2015-12-27T00:56:15.735Z,10.4
2015-12-27T00:57:16.221Z,10.4
2015-12-27T00:58:16.958Z,10.4
2015-12-27T00:59:17.446Z,10.4
2015-12-27T01:00:17.932Z,10.5
2015-12-27T01:01:18.686Z,10.5
2015-12-27T01:03:21.190Z,10.5
2015-12-27T01:04:21.677Z,10.5
2015-12-27T01:05:21.915Z,10.5
2015-12-27T01:06:22.402Z,10.6
2015-12-27T01:07:22.640Z,10.6
2015-12-27T01:08:22.860Z,10.6
2015-12-27T01:09:23.098Z,10.5
2015-12-27T01:10:23.335Z,10.5
2015-12-27T01:11:23.556Z,10.5
2015-12-27T01:12:23.856Z,10.5
2015-12-27T01:13:25.562Z,10.5
2015-12-27T01:14:26.049Z,10.5
2015-12-27T01:15:26.537Z,10.5
2015-12-27T01:16:27.024Z,10.5
2015-12-27T01:17:27.277Z,10.4
2015-12-27T01:18:27.763Z,10.4
2015-12-27T01:19:28.234Z,10.4
2015-12-27T01:20:28.987Z,10.4
2015-12-27T01:21:29.474Z,10.5
2015-12-27T01:22:35.259Z,10.5
2015-12-27T01:23:31.730Z,10.4
2015-12-27T01:24:32.218Z,10.4
2015-12-27T01:25:32.735Z,10.4
2015-12-27T01:26:33.207Z,10.4
2015-12-27T01:27:33.679Z,10.4
2015-12-27T01:28:34.181Z,10.4
2015-12-27T01:29:34.918Z,10.3
2015-12-27T01:30:35.671Z,10.4
2015-12-27T01:31:36.408Z,10.4
2015-12-27T01:32:36.958Z,10.3
2015-12-27T01:33:38.664Z,10.4
2015-12-27T01:34:39.416Z,10.4
2015-12-27T01:35:40.154Z,10.4
2015-12-27T01:36:40.906Z,10.4
2015-12-27T01:37:41.643Z,10.4
2015-12-27T01:38:42.131Z,10.4
2015-12-27T01:39:42.618Z,10.4
2015-12-27T01:40:43.120Z,10.4
2015-12-27T01:41:43.592Z,10.4
2015-12-27T01:42:44.142Z,10.4
2015-12-27T01:43:45.864Z,10.4
2015-12-27T01:44:46.350Z,10.4
2015-12-27T01:45:47.087Z,10.4
2015-12-27T01:46:47.840Z,10.4
2015-12-27T01:47:48.328Z,10.4
2015-12-27T01:48:48.814Z,10.3
2015-12-27T01:49:49.301Z,10.3
2015-12-27T01:50:50.038Z,10.3
2015-12-27T01:51:50.791Z,10.3
2015-12-27T01:52:51.591Z,10.3
2015-12-27T01:53:53.297Z,10.2
2015-12-27T01:54:54.049Z,10.2
2015-12-27T01:55:54.786Z,10.1
2015-12-27T01:56:55.789Z,10.1
2015-12-27T01:57:56.792Z,10.1
2015-12-27T01:58:58.045Z,10.1
2015-12-27T01:59:59.297Z,10.1
2015-12-27T02:02:01.817Z,10
2015-12-27T02:03:03.132Z,10
2015-12-27T02:04:04.853Z,10.1
2015-12-27T02:05:06.106Z,10
2015-12-27T02:06:07.375Z,10
2015-12-27T02:07:08.627Z,10
2015-12-27T02:08:09.864Z,9.9
2015-12-27T02:09:11.133Z,9.9
2015-12-27T02:10:12.636Z,9.9
2015-12-27T02:11:14.153Z,9.9
2015-12-27T02:12:15.672Z,9.8
2015-12-27T02:13:17.503Z,9.8
2015-12-27T02:14:19.208Z,9.8
2015-12-27T02:15:20.978Z,9.8
2015-12-27T02:16:22.762Z,9.8
2015-12-27T02:17:24.530Z,9.8
2015-12-27T02:18:26.298Z,9.8
2015-12-27T02:19:28.066Z,9.7
2015-12-27T02:20:29.835Z,9.7
2015-12-27T02:21:31.619Z,9.7
2015-12-27T02:22:33.636Z,9.7
2015-12-27T02:23:35.733Z,9.6
2015-12-27T02:24:37.455Z,9.6
2015-12-27T02:25:39.739Z,9.5
2015-12-27T02:26:41.758Z,9.5
2015-12-27T02:27:44.057Z,9.5
2015-12-27T02:28:46.324Z,9.5
2015-12-27T02:29:48.625Z,9.5
2015-12-27T02:30:50.909Z,9.5
2015-12-27T02:31:49.349Z,9.4
2015-12-27T02:32:51.633Z,9.4
2015-12-27T02:33:50.135Z,9.4
2015-12-27T02:34:51.857Z,9.4
2015-12-27T02:36:48.722Z,9.4
2015-12-27T02:37:51.006Z,9.4
2015-12-27T02:38:53.305Z,9.4
2015-12-27T02:39:51.730Z,9.4
2015-12-27T02:40:50.171Z,9.3
2015-12-27T02:41:48.627Z,9.4
2015-12-27T02:42:47.316Z,9.4
2015-12-27T02:43:46.069Z,9.4
2015-12-27T02:44:47.791Z,9.3
2015-12-27T02:45:46.229Z,9.3
2015-12-27T02:46:44.919Z,9.3
2015-12-27T02:47:43.624Z,9.4
2015-12-27T02:48:42.315Z,9.4
2015-12-27T02:49:41.020Z,9.3
2015-12-27T02:51:38.417Z,9.3
2015-12-27T02:52:37.106Z,9.3
2015-12-27T02:53:35.876Z,9.3
2015-12-27T02:54:37.581Z,9.3
2015-12-27T02:55:36.287Z,9.2
2015-12-27T02:56:35.242Z,9.2
2015-12-27T02:57:33.933Z,9.2
2015-12-27T02:58:32.889Z,9.2
2015-12-27T02:59:31.844Z,9.3
2015-12-27T03:00:30.800Z,9.3
2015-12-27T03:01:29.756Z,9.3
2015-12-27T03:02:28.697Z,9.3
2015-12-27T03:03:27.714Z,9.2
2015-12-27T03:04:29.437Z,9.2
2015-12-27T03:06:27.083Z,9.2
2015-12-27T03:07:26.303Z,9.2
2015-12-27T03:08:25.510Z,9.2
2015-12-27T03:09:24.716Z,9.1
2015-12-27T03:10:23.937Z,9.1
2015-12-27T03:11:23.142Z,9.1
2015-12-27T03:12:22.365Z,9.1
2015-12-27T03:13:21.617Z,9.1
2015-12-27T03:14:23.323Z,9.1
2015-12-27T03:15:22.811Z,9.1
2015-12-27T03:16:22.016Z,9.1
2015-12-27T03:17:21.238Z,9.1
2015-12-27T03:18:20.444Z,9.1
2015-12-27T03:19:19.649Z,9.1
2015-12-27T03:20:18.871Z,9.1
2015-12-27T03:21:18.074Z,9.1
2015-12-27T03:22:17.295Z,9.1
2015-12-27T03:23:16.548Z,9.1
2015-12-27T03:24:18.285Z,9.1
2015-12-27T03:25:17.491Z,9
2015-12-27T03:26:16.947Z,9.1
2015-12-27T03:27:16.418Z,9.1
2015-12-27T03:29:15.346Z,9.1
2015-12-27T03:30:14.833Z,9.1
2015-12-27T03:31:14.055Z,9.1
2015-12-27T03:32:13.244Z,9.1
2015-12-27T03:33:12.779Z,9.1
2015-12-27T03:34:14.485Z,9.1
2015-12-27T03:35:13.955Z,9.1
2015-12-27T03:36:13.427Z,9.1
2015-12-27T03:37:12.899Z,9.1
2015-12-27T03:38:12.371Z,9.1
2015-12-27T03:39:11.826Z,9.1
2015-12-27T03:40:11.298Z,9.1
2015-12-27T03:41:10.769Z,9.1
2015-12-27T03:42:10.366Z,9.1
2015-12-27T03:43:09.760Z,9.1
2015-12-27T03:44:11.481Z,9.1
2015-12-27T03:45:10.952Z,9.1
2015-12-27T03:46:10.674Z,9.1
2015-12-27T03:48:09.866Z,9.1
2015-12-27T03:49:09.337Z,9.1
2015-12-27T03:51:08.281Z,9.1
2015-12-27T03:52:07.737Z,9.1
2015-12-27T03:53:07.271Z,9.1
2015-12-27T03:54:08.992Z,9.1
2015-12-27T03:55:08.714Z,9.1
2015-12-27T03:56:08.434Z,9.1
2015-12-27T03:57:08.172Z,9.1
2015-12-27T03:58:07.893Z,9.1
2015-12-27T03:59:07.614Z,9.1
2015-12-27T04:00:07.336Z,9.1
2015-12-27T04:01:07.073Z,9.1
2015-12-27T04:02:06.545Z,9
2015-12-27T04:03:06.329Z,9
2015-12-27T04:04:08.050Z,9
2015-12-27T04:05:07.773Z,9
2015-12-27T04:07:07.215Z,9
2015-12-27T04:08:06.953Z,9
2015-12-27T04:09:06.674Z,9
2015-12-27T04:10:06.426Z,9
2015-12-27T04:11:06.117Z,9.1
2015-12-27T04:12:05.838Z,9.1
2015-12-27T04:13:05.635Z,9
2015-12-27T04:14:07.343Z,9.1
2015-12-27T04:15:07.080Z,9
2015-12-27T04:16:06.783Z,9.1
2015-12-27T04:17:06.521Z,9
2015-12-27T04:18:06.258Z,9
2015-12-27T04:19:05.979Z,9
2015-12-27T04:20:05.700Z,9
2015-12-27T04:21:05.422Z,9
2015-12-27T04:22:05.160Z,9
2015-12-27T04:23:04.928Z,8.9
2015-12-27T04:24:06.650Z,8.9
2015-12-27T04:25:06.386Z,8.9
2015-12-27T04:26:06.358Z,8.9
2015-12-27T04:27:06.345Z,8.9
2015-12-27T04:28:06.316Z,8.9
2015-12-27T04:29:06.569Z,8.9
2015-12-27T04:30:06.807Z,8.9
2015-12-27T04:31:07.043Z,8.9
2015-12-27T04:32:07.281Z,8.9
2015-12-27T04:34:09.286Z,8.9
2015-12-27T04:35:09.523Z,8.9
2015-12-27T04:36:09.510Z,8.9
2015-12-27T04:37:09.747Z,8.9
2015-12-27T04:38:09.985Z,8.9
2015-12-27T04:39:09.971Z,8.9
2015-12-27T04:40:10.210Z,8.9
2015-12-27T04:41:10.446Z,8.9
2015-12-27T04:42:10.683Z,8.9
2015-12-27T04:43:10.983Z,8.9
2015-12-27T04:44:12.704Z,8.8
2015-12-27T04:45:12.957Z,8.8
2015-12-27T04:46:13.179Z,8.8
2015-12-27T04:47:13.431Z,8.8
2015-12-27T04:48:13.669Z,8.8
2015-12-27T04:49:13.905Z,8.8
2015-12-27T04:50:14.142Z,8.7
2015-12-27T04:51:14.379Z,8.8
2015-12-27T04:52:14.882Z,8.8
2015-12-27T04:53:15.431Z,8.8
2015-12-27T04:54:17.153Z,8.8
2015-12-27T04:55:17.641Z,8.7
2015-12-27T04:56:17.878Z,8.8
2015-12-27T04:57:18.115Z,8.7
2015-12-27T04:58:18.617Z,8.7
2015-12-27T04:59:18.854Z,8.7
2015-12-27T05:00:19.092Z,8.7
2015-12-27T05:01:19.329Z,8.7
2015-12-27T05:02:19.566Z,8.7
2015-12-27T05:03:20.116Z,8.7
2015-12-27T05:04:21.837Z,8.6
2015-12-27T05:05:22.589Z,8.6
2015-12-27T05:06:23.342Z,8.6
2015-12-27T05:07:24.095Z,8.6
2015-12-27T05:08:24.864Z,8.6
2015-12-27T05:09:25.601Z,8.6
2015-12-27T05:10:26.353Z,8.6
2015-12-27T05:11:27.106Z,8.6
2015-12-27T05:12:27.859Z,8.6
2015-12-27T05:13:28.659Z,8.6
2015-12-27T05:14:30.380Z,8.6
2015-12-27T05:15:31.133Z,8.6
2015-12-27T05:16:31.886Z,8.6
2015-12-27T05:17:32.638Z,8.6
2015-12-27T05:18:33.391Z,8.6
2015-12-27T05:19:34.144Z,8.6
2015-12-27T05:20:34.897Z,8.6
2015-12-27T05:21:35.650Z,8.6
2015-12-27T05:22:36.402Z,8.5
2015-12-27T05:23:37.217Z,8.5
2015-12-27T05:24:38.938Z,8.5
2015-12-27T05:25:39.691Z,8.5
2015-12-27T05:26:40.694Z,8.5
2015-12-27T05:27:41.697Z,8.5
2015-12-27T05:28:42.716Z,8.5
2015-12-27T05:29:43.719Z,8.5
2015-12-27T05:30:44.736Z,8.5
2015-12-27T05:31:45.739Z,8.5
2015-12-27T05:32:47.007Z,8.5
2015-12-27T05:33:48.073Z,8.5
2015-12-27T05:34:49.811Z,8.5
2015-12-27T05:35:50.797Z,8.5
2015-12-27T05:36:51.815Z,8.5
2015-12-27T05:37:52.818Z,8.5
2015-12-27T05:38:53.821Z,8.5
2015-12-27T05:39:55.089Z,8.4
2015-12-27T05:40:56.358Z,8.5
2015-12-27T05:41:57.626Z,8.5
2015-12-27T05:42:58.879Z,8.5
2015-12-27T05:43:59.960Z,8.5
2015-12-27T05:45:01.681Z,8.4
2015-12-27T05:46:02.933Z,8.4
2015-12-27T05:47:03.935Z,8.3
2015-12-27T05:48:05.221Z,8.4
2015-12-27T05:49:06.473Z,8.3
2015-12-27T05:50:07.741Z,8.3
2015-12-27T05:51:08.994Z,8.3
2015-12-27T05:52:10.263Z,8.3
2015-12-27T05:53:11.531Z,8.3
2015-12-27T05:54:13.112Z,8.3
2015-12-27T05:55:14.833Z,8.3
2015-12-27T05:56:16.101Z,8.3
2015-12-27T05:57:17.370Z,8.3
2015-12-27T05:58:18.638Z,8.3
2015-12-27T05:59:19.891Z,8.3
2015-12-27T06:00:21.159Z,8.3
2015-12-27T06:01:22.428Z,8.3
2015-12-27T06:02:24.212Z,8.4
2015-12-27T06:03:25.746Z,8.4
2015-12-27T06:04:27.062Z,8.4
2015-12-27T06:05:28.782Z,8.4
2015-12-27T06:07:31.570Z,8.4
2015-12-27T06:08:32.837Z,8.4
2015-12-27T06:09:34.106Z,8.4
2015-12-27T06:10:35.359Z,8.4
2015-12-27T06:11:36.626Z,8.4
2015-12-27T06:12:37.896Z,8.4
2015-12-27T06:13:39.164Z,8.4
2015-12-27T06:14:40.479Z,8.4
2015-12-27T06:15:42.201Z,8.4
2015-12-27T06:16:43.470Z,8.4
2015-12-27T06:17:44.737Z,8.4
2015-12-27T06:18:46.005Z,8.4
2015-12-27T06:19:47.274Z,8.4
2015-12-27T06:20:48.527Z,8.5
2015-12-27T06:21:49.795Z,8.5
2015-12-27T06:22:51.064Z,8.5
2015-12-27T06:23:52.379Z,8.4
2015-12-27T06:24:53.662Z,8.4
2015-12-27T06:25:55.384Z,8.4
2015-12-27T06:26:56.637Z,8.4
2015-12-27T06:27:57.906Z,8.4
2015-12-27T06:28:59.174Z,8.4
2015-12-27T06:30:00.426Z,8.3
2015-12-27T06:31:01.695Z,8.3
2015-12-27T06:32:02.964Z,8.3
2015-12-27T06:33:04.497Z,8.3
2015-12-27T06:34:06.016Z,8.3
2015-12-27T06:35:07.581Z,8.3
2015-12-27T06:36:09.317Z,8.3
2015-12-27T06:37:10.570Z,8.3
2015-12-27T06:38:11.839Z,8.3
2015-12-27T06:39:13.373Z,8.3
2015-12-27T06:40:14.892Z,8.3
2015-12-27T06:41:16.175Z,8.2
2015-12-27T06:42:17.694Z,8.2
2015-12-27T06:43:19.211Z,8.2
2015-12-27T06:44:20.730Z,8.1
2015-12-27T06:45:22.311Z,8.1
2015-12-27T06:46:24.033Z,8.2
2015-12-27T06:47:25.816Z,8.2
2015-12-27T06:48:27.600Z,8.2
2015-12-27T06:49:29.385Z,8.2
2015-12-27T06:50:31.153Z,8.1
2015-12-27T06:51:32.938Z,8.1
2015-12-27T06:53:36.489Z,8.1
2015-12-27T06:55:40.104Z,8.1
2015-12-27T06:56:41.826Z,8.1
2015-12-27T06:57:43.610Z,8.1
2015-12-27T06:58:45.394Z,8.1
2015-12-27T06:59:47.178Z,8.1
2015-12-27T07:00:48.946Z,8
2015-12-27T07:01:50.730Z,8.1
2015-12-27T07:02:52.498Z,8.1
2015-12-27T07:03:54.283Z,8.1
2015-12-27T07:04:56.066Z,8.1
2015-12-27T07:05:57.896Z,8
2015-12-27T07:06:59.604Z,7.9
2015-12-27T07:08:01.387Z,7.9
2015-12-27T07:09:03.171Z,7.9
2015-12-27T07:10:04.940Z,7.9
2015-12-27T07:11:06.973Z,7.9
2015-12-27T07:12:09.007Z,7.9
2015-12-27T07:13:11.057Z,7.9
2015-12-27T07:14:13.341Z,7.9
2015-12-27T07:15:15.407Z,7.9
2015-12-27T07:16:17.221Z,7.9
2015-12-27T07:17:18.959Z,7.9
2015-12-27T07:18:20.977Z,7.8
2015-12-27T07:19:23.012Z,7.8
2015-12-27T07:20:25.060Z,7.8
2015-12-27T07:21:27.345Z,7.8
2015-12-27T07:22:29.645Z,7.8
2015-12-27T07:23:31.929Z,7.9
2015-12-27T07:24:34.228Z,7.9
2015-12-27T07:25:36.512Z,7.8
2015-12-27T07:26:38.859Z,7.8
2015-12-27T07:27:40.582Z,7.9
2015-12-27T07:28:42.882Z,7.9
2015-12-27T07:29:45.182Z,8
2015-12-27T07:30:47.215Z,7.9
2015-12-27T07:31:49.000Z,7.9
2015-12-27T07:32:51.034Z,7.9
2015-12-27T07:33:53.333Z,8
2015-12-27T07:34:55.367Z,7.9
2015-12-27T07:35:57.151Z,8
2015-12-27T07:36:59.263Z,8
2015-12-27T07:38:00.984Z,8
2015-12-27T07:39:02.769Z,8
2015-12-27T07:40:04.552Z,8.1
2015-12-27T07:42:08.106Z,8
2015-12-27T07:43:09.889Z,8
2015-12-27T07:44:11.673Z,8.1
2015-12-27T07:45:13.442Z,8.1
2015-12-27T07:46:15.225Z,8.1
2015-12-27T07:47:17.072Z,8.1
2015-12-27T07:48:18.794Z,8.1
2015-12-27T07:49:20.562Z,8.1
2015-12-27T07:50:22.096Z,8.1
2015-12-27T07:51:23.614Z,8.1
2015-12-27T07:52:25.133Z,8.1
2015-12-27T07:53:26.400Z,8.1
2015-12-27T07:54:27.669Z,8.1
2015-12-27T07:55:28.953Z,8.1
2015-12-27T07:56:30.456Z,8.1
2015-12-27T07:57:31.786Z,8.1
2015-12-27T07:58:33.525Z,8.2
2015-12-27T07:59:34.792Z,8.2
2015-12-27T08:00:36.045Z,8.3
2015-12-27T08:01:37.314Z,8.3
2015-12-27T08:02:38.582Z,8.3
2015-12-27T08:03:39.850Z,8.3
2015-12-27T08:04:40.852Z,8.3
2015-12-27T08:05:41.872Z,8.4
2015-12-27T08:06:42.624Z,8.4
2015-12-27T08:07:43.439Z,8.4
2015-12-27T08:08:45.160Z,8.4
2015-12-27T08:09:45.913Z,8.4
2015-12-27T08:10:46.666Z,8.4
2015-12-27T08:11:47.418Z,8.5
2015-12-27T08:12:48.172Z,8.5
2015-12-27T08:13:48.924Z,8.5
2015-12-27T08:14:49.427Z,8.6
2015-12-27T08:15:49.665Z,8.5
2015-12-27T08:16:49.901Z,8.6
2015-12-27T08:17:50.201Z,8.6
2015-12-27T08:18:51.923Z,8.7
2015-12-27T08:19:52.176Z,8.7
2015-12-27T08:20:52.412Z,8.7
2015-12-27T08:21:52.399Z,8.8
2015-12-27T08:22:52.387Z,8.8
2015-12-27T08:23:52.373Z,8.8
2015-12-27T08:24:52.095Z,8.8
2015-12-27T08:25:51.832Z,8.8
2015-12-27T08:26:51.553Z,8.9
2015-12-27T08:27:51.337Z,8.9
2015-12-27T08:28:53.059Z,8.9
2015-12-27T08:29:52.781Z,8.9
2015-12-27T08:30:52.252Z,8.9
2015-12-27T08:32:50.961Z,8.9
2015-12-27T08:33:50.167Z,8.9
2015-12-27T08:34:49.385Z,8.9
2015-12-27T08:35:48.606Z,8.9
2015-12-27T08:36:47.813Z,9
2015-12-27T08:37:47.097Z,9
2015-12-27T08:38:48.803Z,9.1
2015-12-27T08:39:47.758Z,9.1
2015-12-27T08:40:46.731Z,9.1
2015-12-27T08:41:45.686Z,9.1
2015-12-27T08:42:44.642Z,9.1
2015-12-27T08:43:43.347Z,9.1
2015-12-27T08:44:42.037Z,9.1
2015-12-27T08:45:40.744Z,9.1
2015-12-27T08:46:39.444Z,9.2
2015-12-27T08:47:38.187Z,9.3
2015-12-27T08:48:39.896Z,9.3
2015-12-27T08:49:38.327Z,9.3
2015-12-27T08:50:36.756Z,9.3
2015-12-27T08:51:39.051Z,9.3
2015-12-27T08:52:41.332Z,9.3
2015-12-27T08:53:43.628Z,9.4
2015-12-27T08:54:45.909Z,9.4
2015-12-27T08:55:48.189Z,9.4
2015-12-27T08:56:50.487Z,9.5
2015-12-27T08:57:52.567Z,9.5
2015-12-27T08:58:54.287Z,9.5
2015-12-27T08:59:56.070Z,9.5
2015-12-27T09:00:57.868Z,9.5
2015-12-27T09:01:59.620Z,9.6
2015-12-27T09:03:01.388Z,9.6
2015-12-27T09:04:03.172Z,9.6
2015-12-27T09:05:04.690Z,9.7
2015-12-27T09:06:06.192Z,9.7
2015-12-27T09:07:07.460Z,9.7
2015-12-27T09:08:08.775Z,9.7
2015-12-27T09:09:10.496Z,9.7
2015-12-27T09:10:11.764Z,9.8
2015-12-27T09:11:13.031Z,9.9
2015-12-27T09:12:14.066Z,10
2015-12-27T09:13:14.804Z,10.2
2015-12-27T09:14:15.039Z,10.5
2015-12-27T09:15:15.012Z,11
2015-12-27T09:16:14.217Z,11.6
2015-12-27T09:17:16.503Z,12.1
2015-12-27T09:18:17.551Z,12.7
2015-12-27T09:19:19.288Z,13.2
2015-12-27T09:20:18.245Z,13.6
2015-12-27T09:21:16.934Z,14
2015-12-27T09:22:18.718Z,14.1
2015-12-27T09:23:19.206Z,13.8
2015-12-27T09:24:19.427Z,13.5
2015-12-27T09:25:20.430Z,13.3
2015-12-27T09:26:21.682Z,13.1
2015-12-27T09:27:23.451Z,13
2015-12-27T09:28:25.797Z,12.9
2015-12-27T09:29:27.503Z,12.9
2015-12-27T09:30:29.788Z,12.9
2015-12-27T09:31:32.055Z,13
2015-12-27T09:32:34.339Z,13
2015-12-27T09:33:36.624Z,12.9
2015-12-27T09:34:38.642Z,12.7
2015-12-27T09:35:40.926Z,12.5
2015-12-27T09:36:43.194Z,12.5
2015-12-27T09:37:41.900Z,12.4
2015-12-27T09:38:40.903Z,12.4
2015-12-27T09:39:42.608Z,12.3
2015-12-27T09:40:41.549Z,12.3
2015-12-27T09:41:40.755Z,12.3
2015-12-27T09:42:39.696Z,12.5
2015-12-27T09:43:38.901Z,12.7
2015-12-27T09:44:37.857Z,12.8
2015-12-27T09:46:38.565Z,12.8
2015-12-27T09:47:40.318Z,13
2015-12-27T09:48:42.133Z,13.1
2015-12-27T09:49:43.855Z,13.4
2015-12-27T09:50:45.108Z,13.7
2015-12-27T09:51:46.110Z,13.8
2015-12-27T09:52:46.848Z,13.9
2015-12-27T09:53:47.335Z,14
2015-12-27T09:55:48.293Z,14.1
2015-12-27T09:56:48.265Z,14.3
2015-12-27T09:58:48.240Z,14.6
2015-12-27T09:59:49.960Z,14.8
2015-12-27T10:00:49.166Z,14.8
2015-12-27T10:01:47.826Z,14.7
2015-12-27T10:02:46.250Z,14.9
2015-12-27T10:03:45.206Z,14.8
2015-12-27T10:04:43.631Z,14.7
2015-12-27T10:05:42.305Z,14.7
2015-12-27T10:06:40.995Z,14.7
2015-12-27T10:07:39.670Z,14.6
2015-12-27T10:08:38.157Z,14.5
2015-12-27T10:09:39.878Z,14.4
2015-12-27T10:10:38.522Z,14.2
2015-12-27T10:11:37.978Z,14.1
2015-12-27T10:12:37.418Z,13.9
2015-12-27T10:13:36.873Z,13.7
2015-12-27T10:14:36.329Z,13.6
2015-12-27T10:15:36.298Z,13.5
2015-12-27T10:16:36.773Z,13.3
2015-12-27T10:17:37.259Z,13.1
2015-12-27T10:18:37.794Z,12.9
2015-12-27T10:19:39.500Z,12.8
2015-12-27T10:20:40.721Z,12.7
2015-12-27T10:21:42.473Z,12.6
2015-12-27T10:22:44.242Z,12.6
2015-12-27T10:23:46.261Z,12.5
2015-12-27T10:24:48.528Z,12.5
2015-12-27T10:25:50.797Z,12.5
2015-12-27T10:26:53.081Z,12.4
2015-12-27T10:27:55.349Z,12.4
2015-12-27T10:28:53.836Z,12.4
2015-12-27T10:29:55.527Z,12.3
2015-12-27T10:30:57.810Z,12.4
2015-12-27T10:31:56.235Z,12.5
2015-12-27T10:32:54.660Z,12.5
2015-12-27T10:33:56.944Z,12.5
2015-12-27T10:34:59.213Z,12.4
2015-12-27T10:36:01.480Z,12.4
2015-12-27T10:37:03.749Z,12.3
2015-12-27T10:38:06.033Z,12.2
2015-12-27T10:40:06.257Z,12.1
2015-12-27T10:41:04.916Z,12.1
2015-12-27T10:42:03.857Z,12.1
2015-12-27T10:43:02.794Z,12.1
2015-12-27T10:44:01.984Z,12.1
2015-12-27T10:45:01.191Z,12
2015-12-27T10:46:00.380Z,12
2015-12-27T10:46:59.586Z,12
2015-12-27T10:47:58.776Z,12
2015-12-27T10:48:58.044Z,12.1
2015-12-27T10:49:59.751Z,12.1
2015-12-27T10:50:58.691Z,12.1
2015-12-27T10:51:57.882Z,12
2015-12-27T10:52:56.821Z,12
2015-12-27T10:53:56.027Z,12.1
2015-12-27T10:54:55.233Z,12.1
2015-12-27T10:55:54.423Z,12.1
2015-12-27T10:56:53.613Z,12.1
2015-12-27T10:57:52.819Z,12.1
2015-12-27T10:58:51.822Z,12.1
2015-12-27T10:59:53.543Z,12.1
2015-12-27T11:00:52.468Z,12.1
2015-12-27T11:01:51.409Z,12.1
2015-12-27T11:02:50.349Z,12.1
2015-12-27T11:03:49.289Z,12.1
2015-12-27T11:04:48.245Z,12.1
2015-12-27T11:06:46.125Z,12.1
2015-12-27T11:07:45.065Z,12
2015-12-27T11:08:44.069Z,12
2015-12-27T11:09:45.774Z,11.9
2015-12-27T11:10:44.715Z,11.9
2015-12-27T11:11:43.654Z,11.9
2015-12-27T11:12:42.592Z,11.9
2015-12-27T11:13:41.532Z,11.9
2015-12-27T11:14:40.473Z,11.9
2015-12-27T11:15:39.429Z,11.9
2015-12-27T11:16:38.369Z,11.9
2015-12-27T11:17:37.575Z,11.9
2015-12-27T11:18:36.828Z,11.9
2015-12-27T11:19:38.518Z,11.9
2015-12-27T11:20:37.724Z,12
2015-12-27T11:21:36.915Z,11.9
2015-12-27T11:22:36.120Z,11.9
2015-12-27T11:23:35.326Z,12
2015-12-27T11:24:34.258Z,11.9
2015-12-27T11:25:33.463Z,11.9
2015-12-27T11:26:33.100Z,11.9
2015-12-27T11:27:31.385Z,11.9
2015-12-27T11:28:30.341Z,11.9
2015-12-27T11:29:32.047Z,11.9
2015-12-27T11:30:30.987Z,11.9
2015-12-27T11:31:29.927Z,11.9
2015-12-27T11:32:28.867Z,11.9
2015-12-27T11:33:28.074Z,11.8
2015-12-27T11:34:27.013Z,11.8
2015-12-27T11:35:25.954Z,11.8
2015-12-27T11:36:25.144Z,11.8
2015-12-27T11:37:24.350Z,11.8
2015-12-27T11:38:23.602Z,11.8
2015-12-27T11:39:25.308Z,11.8
2015-12-27T11:40:24.498Z,11.8
2015-12-27T11:41:23.704Z,11.8
2015-12-27T11:42:22.910Z,11.8
2015-12-27T11:43:22.098Z,11.9
2015-12-27T11:44:21.288Z,11.8
2015-12-27T11:46:19.699Z,11.8
2015-12-27T11:47:18.890Z,11.8
2015-12-27T11:48:18.158Z,11.8
2015-12-27T11:49:19.865Z,11.8
2015-12-27T11:50:19.071Z,11.8
2015-12-27T11:51:18.260Z,11.9
2015-12-27T11:52:17.466Z,11.9
2015-12-27T11:53:16.673Z,11.9
2015-12-27T11:54:15.878Z,11.9
2015-12-27T11:55:15.068Z,11.9
2015-12-27T11:56:14.273Z,12
2015-12-27T11:57:13.480Z,11.9
2015-12-27T11:58:12.482Z,12
2015-12-27T11:59:14.190Z,11.9
2015-12-27T12:00:13.378Z,12
2015-12-27T12:01:12.335Z,11.9
2015-12-27T12:02:11.010Z,12
2015-12-27T12:03:09.715Z,12
2015-12-27T12:04:08.406Z,12.1
2015-12-27T12:05:07.081Z,12.1
2015-12-27T12:06:07.912Z,12.1
2015-12-27T12:07:04.461Z,12.1
2015-12-27T12:08:03.214Z,12.1
2015-12-27T12:09:04.903Z,12.1
2015-12-27T12:10:03.344Z,12.1
2015-12-27T12:11:01.765Z,12.2
2015-12-27T12:12:00.206Z,12.2
2015-12-27T12:12:58.631Z,12.2
2015-12-27T12:13:57.070Z,12.2
2015-12-27T12:14:55.495Z,12.2
2015-12-27T12:15:53.920Z,12.2
2015-12-27T12:16:52.361Z,12.2
2015-12-27T12:17:50.848Z,12.2
2015-12-27T12:18:52.554Z,12.1
2015-12-27T12:19:50.994Z,12.1
2015-12-27T12:20:49.418Z,12.1
2015-12-27T12:21:47.858Z,12.1
2015-12-27T12:22:46.533Z,12.1
2015-12-27T12:23:45.223Z,12.1
2015-12-27T12:24:43.663Z,12.1
2015-12-27T12:25:42.338Z,12
2015-12-27T12:26:41.028Z,12
2015-12-27T12:27:39.766Z,11.9
2015-12-27T12:28:41.471Z,11.9
2015-12-27T12:29:40.161Z,11.9
2015-12-27T12:30:39.102Z,11.9
2015-12-27T12:31:38.042Z,11.9
2015-12-27T12:32:36.983Z,11.8
2015-12-27T12:34:34.863Z,11.8
2015-12-27T12:35:33.550Z,11.8
2015-12-27T12:36:32.240Z,11.9
2015-12-27T12:37:30.978Z,11.8
2015-12-27T12:38:32.683Z,11.9
2015-12-27T12:39:31.358Z,11.9
2015-12-27T12:40:30.049Z,11.9
2015-12-27T12:41:28.739Z,11.9
2015-12-27T12:42:27.414Z,11.9
2015-12-27T12:43:26.103Z,11.9
2015-12-27T12:44:24.794Z,11.9
2015-12-27T12:45:23.547Z,11.9
2015-12-27T12:46:22.159Z,11.9
2015-12-27T12:47:20.911Z,11.9
2015-12-27T12:48:22.602Z,12
2015-12-27T12:49:21.042Z,12
2015-12-27T12:50:19.467Z,12
2015-12-27T12:51:17.891Z,12
2015-12-27T12:52:20.160Z,12
2015-12-27T12:53:18.585Z,12
2015-12-27T12:54:17.025Z,12
2015-12-27T12:56:17.718Z,12
2015-12-27T12:57:20.049Z,12.1
2015-12-27T12:58:21.755Z,12
2015-12-27T12:59:24.022Z,12
2015-12-27T13:00:26.307Z,12
2015-12-27T13:01:28.575Z,12
2015-12-27T13:02:30.843Z,12
2015-12-27T13:03:33.127Z,12
2015-12-27T13:04:35.396Z,12
2015-12-27T13:05:37.664Z,12
2015-12-27T13:06:39.948Z,12
2015-12-27T13:07:38.435Z,12
2015-12-27T13:08:40.126Z,12
2015-12-27T13:09:42.410Z,11.9
2015-12-27T13:10:44.678Z,11.9
2015-12-27T13:11:46.962Z,11.9
2015-12-27T13:12:45.387Z,11.9
2015-12-27T13:13:43.810Z,11.9
2015-12-27T13:15:41.176Z,11.8
2015-12-27T13:16:39.866Z,11.7
2015-12-27T13:17:38.604Z,11.8
2015-12-27T13:18:40.310Z,11.8
2015-12-27T13:19:38.999Z,11.7
2015-12-27T13:20:37.671Z,11.7
2015-12-27T13:21:36.362Z,11.7
2015-12-27T13:22:35.052Z,11.7
2015-12-27T13:23:33.742Z,11.7
2015-12-27T13:24:32.417Z,11.7
2015-12-27T13:25:31.107Z,11.7
2015-12-27T13:26:29.798Z,11.6
2015-12-27T13:27:28.800Z,11.6
2015-12-27T13:28:30.507Z,11.6
2015-12-27T13:29:29.446Z,11.6
2015-12-27T13:30:28.387Z,11.6
2015-12-27T13:31:27.593Z,11.6
2015-12-27T13:32:26.532Z,11.6
2015-12-27T13:33:25.473Z,11.6
2015-12-27T13:34:24.663Z,11.6
2015-12-27T13:35:23.869Z,11.6
2015-12-27T13:36:22.826Z,11.6
2015-12-27T13:37:21.813Z,11.6
2015-12-27T13:38:23.518Z,11.6
2015-12-27T13:39:22.723Z,11.6
2015-12-27T13:40:21.929Z,11.6
2015-12-27T13:41:20.870Z,11.6
2015-12-27T13:42:20.076Z,11.5
2015-12-27T13:43:19.297Z,11.5
2015-12-27T13:44:18.472Z,11.5
2015-12-27T13:45:17.678Z,11.5
2015-12-27T13:46:16.884Z,11.4
2015-12-27T13:47:16.386Z,11.4
2015-12-27T13:48:18.092Z,11.3
2015-12-27T13:49:17.561Z,11.4
2015-12-27T13:50:17.001Z,11.3
2015-12-27T13:51:16.457Z,11.3
2015-12-27T13:52:15.929Z,11.3
2015-12-27T13:53:15.384Z,11.3
2015-12-27T13:54:14.809Z,11.3
2015-12-27T13:55:14.531Z,11.3
2015-12-27T13:56:14.237Z,11.3
2015-12-27T13:57:14.006Z,11.3
2015-12-27T13:58:15.711Z,11.3
2015-12-27T13:59:15.432Z,11.3
2015-12-27T14:00:15.153Z,11.2
2015-12-27T14:01:14.860Z,11.2
2015-12-27T14:02:14.565Z,11.2
2015-12-27T14:03:14.537Z,11.2
2015-12-27T14:04:14.493Z,11.1
2015-12-27T14:05:14.465Z,11.1
2015-12-27T14:06:14.436Z,11.1
2015-12-27T14:07:14.454Z,11.1
2015-12-27T14:08:16.161Z,11.1